O'Neals, California
Current Conditions -  °F | °C
As of 1:53 PM on Monday 26 Jan 2015 (Local Time) from KFAT Reporting Station
Haze Haze  
Wind Chill: 59°   Ceiling: 15000
Heat Index: 59°   Visibility: 3mi
Dew Point: 45°   Wind: 7mph
Humidity: 60%   Direction: 20°NNE
Pressure: 30"   Gusts: NA
Location:  37.13°N, 119.7°W
Report Text: KFAT 262153Z 02006KT 3SM HZ FEW050 OVC150 15/07 A3000 RMK AO2 SFC VIS 5 SLP158 T01500072
Loading
Personal Weather Stations






























Interactive Weather Map New forecast layout! Learn more

10-Day Weather Forecast

Advertisements
Track Severe Weather on mobile